sensor_id;sensor_type;location;lat;lon;timestamp;temperature;humidity
30148;DHT22;16960;49.404;8.248;2023-12-28T00:01:48;20.00;38.90
30148;DHT22;16960;49.404;8.248;2023-12-28T00:04:16;20.00;39.00
30148;DHT22;16960;49.404;8.248;2023-12-28T00:06:43;20.00;39.00
30148;DHT22;16960;49.404;8.248;2023-12-28T00:09:10;19.90;39.00
30148;DHT22;16960;49.404;8.248;2023-12-28T00:11:37;20.00;39.00
30148;DHT22;16960;49.404;8.248;2023-12-28T00:14:04;20.00;39.60
30148;DHT22;16960;49.404;8.248;2023-12-28T00:16:31;20.00;39.10
30148;DHT22;16960;49.404;8.248;2023-12-28T00:19:28;20.00;39.10
30148;DHT22;16960;49.404;8.248;2023-12-28T00:21:55;20.00;39.00
30148;DHT22;16960;49.404;8.248;2023-12-28T00:24:21;20.00;39.10
30148;DHT22;16960;49.404;8.248;2023-12-28T00:26:48;20.00;39.10
30148;DHT22;16960;49.404;8.248;2023-12-28T00:29:15;20.00;39.10
30148;DHT22;16960;49.404;8.248;2023-12-28T00:31:42;19.90;39.10
30148;DHT22;16960;49.404;8.248;2023-12-28T00:34:09;19.90;39.20
30148;DHT22;16960;49.404;8.248;2023-12-28T00:36:37;19.90;39.10
30148;DHT22;16960;49.404;8.248;2023-12-28T00:39:04;19.90;39.20
30148;DHT22;16960;49.404;8.248;2023-12-28T00:41:31;19.90;39.20
30148;DHT22;16960;49.404;8.248;2023-12-28T00:43:58;19.90;39.30
30148;DHT22;16960;49.404;8.248;2023-12-28T00:46:26;19.90;39.30
30148;DHT22;16960;49.404;8.248;2023-12-28T00:48:53;19.90;39.30
30148;DHT22;16960;49.404;8.248;2023-12-28T00:51:20;19.90;39.20
30148;DHT22;16960;49.404;8.248;2023-12-28T00:53:48;20.00;39.20
30148;DHT22;16960;49.404;8.248;2023-12-28T00:56:16;19.90;39.20
30148;DHT22;16960;49.404;8.248;2023-12-28T00:58:43;19.90;39.30
30148;DHT22;16960;49.404;8.248;2023-12-28T01:01:10;19.90;39.20
30148;DHT22;16960;49.404;8.248;2023-12-28T01:03:37;19.90;39.30
30148;DHT22;16960;49.404;8.248;2023-12-28T01:06:05;19.90;39.20
30148;DHT22;16960;49.404;8.248;2023-12-28T01:08:32;19.90;39.20
30148;DHT22;16960;49.404;8.248;2023-12-28T01:11:01;20.00;39.20
30148;DHT22;16960;49.404;8.248;2023-12-28T01:13:28;19.90;39.20
30148;DHT22;16960;49.404;8.248;2023-12-28T01:15:56;19.90;39.20
30148;DHT22;16960;49.404;8.248;2023-12-28T01:18:23;19.90;39.30
30148;DHT22;16960;49.404;8.248;2023-12-28T01:20:50;19.90;39.20
30148;DHT22;16960;49.404;8.248;2023-12-28T01:23:17;20.00;39.30
30148;DHT22;16960;49.404;8.248;2023-12-28T01:25:43;19.90;39.30
30148;DHT22;16960;49.404;8.248;2023-12-28T01:28:12;19.90;39.30
30148;DHT22;16960;49.404;8.248;2023-12-28T01:30:39;19.90;39.30
30148;DHT22;16960;49.404;8.248;2023-12-28T01:33:06;19.90;39.30
30148;DHT22;16960;49.404;8.248;2023-12-28T01:35:32;19.90;39.30
30148;DHT22;16960;49.404;8.248;2023-12-28T01:37:59;20.00;39.30
30148;DHT22;16960;49.404;8.248;2023-12-28T01:40:27;19.90;39.30
30148;DHT22;16960;49.404;8.248;2023-12-28T01:42:54;19.90;39.30
30148;DHT22;16960;49.404;8.248;2023-12-28T01:45:22;20.00;39.30
30148;DHT22;16960;49.404;8.248;2023-12-28T01:47:50;19.90;39.40
30148;DHT22;16960;49.404;8.248;2023-12-28T01:50:17;19.90;39.30
30148;DHT22;16960;49.404;8.248;2023-12-28T01:52:45;19.90;39.40
30148;DHT22;16960;49.404;8.248;2023-12-28T01:55:13;19.90;39.30
30148;DHT22;16960;49.404;8.248;2023-12-28T01:57:40;19.90;39.30
30148;DHT22;16960;49.404;8.248;2023-12-28T02:00:08;19.90;39.30
30148;DHT22;16960;49.404;8.248;2023-12-28T02:02:36;19.90;39.30
30148;DHT22;16960;49.404;8.248;2023-12-28T02:05:04;19.90;39.30
30148;DHT22;16960;49.404;8.248;2023-12-28T02:07:32;20.00;39.90
30148;DHT22;16960;49.404;8.248;2023-12-28T02:09:59;20.00;39.30
30148;DHT22;16960;49.404;8.248;2023-12-28T02:12:26;20.00;39.30
30148;DHT22;16960;49.404;8.248;2023-12-28T02:14:53;19.90;39.20
30148;DHT22;16960;49.404;8.248;2023-12-28T02:17:25;19.90;39.20
30148;DHT22;16960;49.404;8.248;2023-12-28T02:19:58;19.90;39.20
30148;DHT22;16960;49.404;8.248;2023-12-28T02:22:26;20.00;39.20
30148;DHT22;16960;49.404;8.248;2023-12-28T02:25:02;20.00;39.20
30148;DHT22;16960;49.404;8.248;2023-12-28T02:27:29;19.90;39.80
30148;DHT22;16960;49.404;8.248;2023-12-28T02:29:57;19.90;39.20
30148;DHT22;16960;49.404;8.248;2023-12-28T02:32:33;20.00;39.30
30148;DHT22;16960;49.404;8.248;2023-12-28T02:35:10;19.90;39.30
30148;DHT22;16960;49.404;8.248;2023-12-28T02:37:38;19.90;39.30
30148;DHT22;16960;49.404;8.248;2023-12-28T02:40:09;19.90;39.30
30148;DHT22;16960;49.404;8.248;2023-12-28T02:42:36;19.90;39.30
30148;DHT22;16960;49.404;8.248;2023-12-28T02:45:04;19.90;39.30
30148;DHT22;16960;49.404;8.248;2023-12-28T02:47:31;19.90;39.30
30148;DHT22;16960;49.404;8.248;2023-12-28T02:49:58;19.90;39.40
30148;DHT22;16960;49.404;8.248;2023-12-28T02:52:25;19.90;39.30
30148;DHT22;16960;49.404;8.248;2023-12-28T02:54:52;19.90;39.30
30148;DHT22;16960;49.404;8.248;2023-12-28T02:57:21;20.00;39.30
30148;DHT22;16960;49.404;8.248;2023-12-28T02:59:57;19.90;39.30
30148;DHT22;16960;49.404;8.248;2023-12-28T03:02:35;19.90;39.20
30148;DHT22;16960;49.404;8.248;2023-12-28T03:05:04;19.90;39.20
30148;DHT22;16960;49.404;8.248;2023-12-28T03:07:31;19.90;39.20
30148;DHT22;16960;49.404;8.248;2023-12-28T03:09:58;19.90;39.20
30148;DHT22;16960;49.404;8.248;2023-12-28T03:12:27;19.90;39.20
30148;DHT22;16960;49.404;8.248;2023-12-28T03:14:54;19.90;39.20
30148;DHT22;16960;49.404;8.248;2023-12-28T03:17:22;19.90;39.20
30148;DHT22;16960;49.404;8.248;2023-12-28T03:19:48;19.90;39.20
30148;DHT22;16960;49.404;8.248;2023-12-28T03:22:15;19.90;39.20
30148;DHT22;16960;49.404;8.248;2023-12-28T03:24:43;19.90;39.20
30148;DHT22;16960;49.404;8.248;2023-12-28T03:27:09;19.90;39.30
30148;DHT22;16960;49.404;8.248;2023-12-28T03:29:38;19.90;39.30
30148;DHT22;16960;49.404;8.248;2023-12-28T03:32:06;19.90;39.30
30148;DHT22;16960;49.404;8.248;2023-12-28T03:34:33;19.90;39.30
30148;DHT22;16960;49.404;8.248;2023-12-28T03:37:00;19.90;39.40
30148;DHT22;16960;49.404;8.248;2023-12-28T03:39:27;19.90;39.40
30148;DHT22;16960;49.404;8.248;2023-12-28T03:41:54;19.90;39.30
30148;DHT22;16960;49.404;8.248;2023-12-28T03:44:21;19.90;39.40
30148;DHT22;16960;49.404;8.248;2023-12-28T03:46:50;19.90;39.30
30148;DHT22;16960;49.404;8.248;2023-12-28T03:49:17;19.90;39.40
30148;DHT22;16960;49.404;8.248;2023-12-28T03:51:44;19.90;39.40
30148;DHT22;16960;49.404;8.248;2023-12-28T03:54:11;19.90;39.30
30148;DHT22;16960;49.404;8.248;2023-12-28T03:56:38;19.90;39.40
30148;DHT22;16960;49.404;8.248;2023-12-28T03:59:06;19.90;39.40
30148;DHT22;16960;49.404;8.248;2023-12-28T04:01:33;19.90;39.40
30148;DHT22;16960;49.404;8.248;2023-12-28T04:04:01;19.90;39.40
30148;DHT22;16960;49.404;8.248;2023-12-28T04:06:28;19.90;39.40
30148;DHT22;16960;49.404;8.248;2023-12-28T04:08:55;19.90;39.40
30148;DHT22;16960;49.404;8.248;2023-12-28T04:11:22;19.90;39.50
30148;DHT22;16960;49.404;8.248;2023-12-28T04:13:49;19.90;39.40
30148;DHT22;16960;49.404;8.248;2023-12-28T04:16:16;19.90;39.40
30148;DHT22;16960;49.404;8.248;2023-12-28T04:18:44;19.90;39.50
30148;DHT22;16960;49.404;8.248;2023-12-28T04:21:13;19.90;39.50
30148;DHT22;16960;49.404;8.248;2023-12-28T04:23:41;19.90;39.50
30148;DHT22;16960;49.404;8.248;2023-12-28T04:26:08;20.00;39.50
30148;DHT22;16960;49.404;8.248;2023-12-28T04:28:35;20.00;39.50
30148;DHT22;16960;49.404;8.248;2023-12-28T04:31:03;19.90;39.50
30148;DHT22;16960;49.404;8.248;2023-12-28T04:33:30;20.00;39.40
30148;DHT22;16960;49.404;8.248;2023-12-28T04:36:00;20.00;39.40
30148;DHT22;16960;49.404;8.248;2023-12-28T04:38:28;20.00;39.50
30148;DHT22;16960;49.404;8.248;2023-12-28T04:40:55;20.00;39.50
30148;DHT22;16960;49.404;8.248;2023-12-28T04:43:22;20.00;39.50
30148;DHT22;16960;49.404;8.248;2023-12-28T04:45:49;20.00;39.50
30148;DHT22;16960;49.404;8.248;2023-12-28T04:48:16;20.00;39.50
30148;DHT22;16960;49.404;8.248;2023-12-28T04:50:46;20.00;39.50
30148;DHT22;16960;49.404;8.248;2023-12-28T04:53:14;20.00;39.50
30148;DHT22;16960;49.404;8.248;2023-12-28T04:55:42;20.00;39.60
30148;DHT22;16960;49.404;8.248;2023-12-28T04:58:10;20.00;39.60
30148;DHT22;16960;49.404;8.248;2023-12-28T05:00:38;20.00;39.50
30148;DHT22;16960;49.404;8.248;2023-12-28T05:03:05;20.00;39.50
30148;DHT22;16960;49.404;8.248;2023-12-28T05:05:32;20.00;39.50
30148;DHT22;16960;49.404;8.248;2023-12-28T05:11:27;20.10;39.70
30148;DHT22;16960;49.404;8.248;2023-12-28T05:13:57;20.10;39.70
30148;DHT22;16960;49.404;8.248;2023-12-28T05:16:23;20.10;39.70
30148;DHT22;16960;49.404;8.248;2023-12-28T05:18:50;20.10;39.70
30148;DHT22;16960;49.404;8.248;2023-12-28T05:21:17;20.10;39.70
30148;DHT22;16960;49.404;8.248;2023-12-28T05:23:45;20.20;39.80
30148;DHT22;16960;49.404;8.248;2023-12-28T05:26:12;20.20;39.80
30148;DHT22;16960;49.404;8.248;2023-12-28T05:28:40;20.20;39.80
30148;DHT22;16960;49.404;8.248;2023-12-28T05:31:07;20.30;39.90
30148;DHT22;16960;49.404;8.248;2023-12-28T05:33:34;20.30;39.80
30148;DHT22;16960;49.404;8.248;2023-12-28T05:36:01;20.20;39.80
30148;DHT22;16960;49.404;8.248;2023-12-28T05:38:27;20.30;39.80
30148;DHT22;16960;49.404;8.248;2023-12-28T05:40:54;20.40;39.80
30148;DHT22;16960;49.404;8.248;2023-12-28T05:43:21;20.30;39.80
30148;DHT22;16960;49.404;8.248;2023-12-28T05:45:50;20.40;39.80
30148;DHT22;16960;49.404;8.248;2023-12-28T05:48:17;20.40;39.80
30148;DHT22;16960;49.404;8.248;2023-12-28T05:50:43;20.40;39.80
30148;DHT22;16960;49.404;8.248;2023-12-28T05:53:10;20.40;39.80
30148;DHT22;16960;49.404;8.248;2023-12-28T05:55:39;20.40;39.80
30148;DHT22;16960;49.404;8.248;2023-12-28T05:58:06;20.40;39.70
30148;DHT22;16960;49.404;8.248;2023-12-28T06:00:33;20.40;39.70
30148;DHT22;16960;49.404;8.248;2023-12-28T06:03:03;20.50;39.80
30148;DHT22;16960;49.404;8.248;2023-12-28T06:05:30;20.40;39.70
30148;DHT22;16960;49.404;8.248;2023-12-28T06:07:57;20.40;39.70
30148;DHT22;16960;49.404;8.248;2023-12-28T06:10:24;20.40;39.70
30148;DHT22;16960;49.404;8.248;2023-12-28T06:12:51;20.50;39.90
30148;DHT22;16960;49.404;8.248;2023-12-28T06:15:18;20.40;39.80
30148;DHT22;16960;49.404;8.248;2023-12-28T06:17:45;20.40;39.80
30148;DHT22;16960;49.404;8.248;2023-12-28T06:20:13;20.50;39.80
30148;DHT22;16960;49.404;8.248;2023-12-28T06:22:40;20.40;40.40
30148;DHT22;16960;49.404;8.248;2023-12-28T06:25:10;20.50;39.80
30148;DHT22;16960;49.404;8.248;2023-12-28T06:27:37;20.40;39.70
30148;DHT22;16960;49.404;8.248;2023-12-28T06:30:05;20.40;39.70
30148;DHT22;16960;49.404;8.248;2023-12-28T06:32:32;20.50;39.90
30148;DHT22;16960;49.404;8.248;2023-12-28T06:34:59;20.40;39.80
30148;DHT22;16960;49.404;8.248;2023-12-28T06:37:28;20.40;39.80
30148;DHT22;16960;49.404;8.248;2023-12-28T06:39:54;20.40;39.80
30148;DHT22;16960;49.404;8.248;2023-12-28T06:42:21;20.40;39.80
30148;DHT22;16960;49.404;8.248;2023-12-28T06:44:48;20.40;39.80
30148;DHT22;16960;49.404;8.248;2023-12-28T06:47:15;20.40;39.80
30148;DHT22;16960;49.404;8.248;2023-12-28T06:49:42;20.40;39.80
30148;DHT22;16960;49.404;8.248;2023-12-28T06:52:09;20.40;40.00
30148;DHT22;16960;49.404;8.248;2023-12-28T06:54:37;20.40;40.00
30148;DHT22;16960;49.404;8.248;2023-12-28T06:57:04;20.40;40.00
30148;DHT22;16960;49.404;8.248;2023-12-28T06:59:31;20.40;40.00
30148;DHT22;16960;49.404;8.248;2023-12-28T07:01:58;20.40;40.00
30148;DHT22;16960;49.404;8.248;2023-12-28T07:04:25;20.40;40.00
30148;DHT22;16960;49.404;8.248;2023-12-28T07:06:54;20.40;40.00
30148;DHT22;16960;49.404;8.248;2023-12-28T07:09:21;20.40;40.00
30148;DHT22;16960;49.404;8.248;2023-12-28T07:11:50;20.40;40.00
30148;DHT22;16960;49.404;8.248;2023-12-28T07:14:16;20.40;40.00
30148;DHT22;16960;49.404;8.248;2023-12-28T07:16:43;20.40;40.00
30148;DHT22;16960;49.404;8.248;2023-12-28T07:19:11;20.40;40.00
30148;DHT22;16960;49.404;8.248;2023-12-28T07:21:37;20.40;40.00
30148;DHT22;16960;49.404;8.248;2023-12-28T07:24:05;20.40;40.00
30148;DHT22;16960;49.404;8.248;2023-12-28T07:26:32;20.40;40.00
30148;DHT22;16960;49.404;8.248;2023-12-28T07:29:00;20.40;40.00
30148;DHT22;16960;49.404;8.248;2023-12-28T07:31:27;20.40;40.00
30148;DHT22;16960;49.404;8.248;2023-12-28T07:33:57;20.40;40.00
30148;DHT22;16960;49.404;8.248;2023-12-28T07:36:24;20.40;40.00
30148;DHT22;16960;49.404;8.248;2023-12-28T07:38:51;20.50;40.10
30148;DHT22;16960;49.404;8.248;2023-12-28T07:41:18;20.40;40.00
30148;DHT22;16960;49.404;8.248;2023-12-28T07:43:44;20.40;40.00
30148;DHT22;16960;49.404;8.248;2023-12-28T07:46:13;20.40;40.00
30148;DHT22;16960;49.404;8.248;2023-12-28T07:48:40;20.40;40.00
30148;DHT22;16960;49.404;8.248;2023-12-28T07:51:07;20.40;40.10
30148;DHT22;16960;49.404;8.248;2023-12-28T07:53:34;20.40;40.10
30148;DHT22;16960;49.404;8.248;2023-12-28T07:56:00;20.40;40.20
30148;DHT22;16960;49.404;8.248;2023-12-28T07:58:27;20.40;40.20
30148;DHT22;16960;49.404;8.248;2023-12-28T08:00:54;20.40;40.30
30148;DHT22;16960;49.404;8.248;2023-12-28T08:03:21;20.40;40.30
30148;DHT22;16960;49.404;8.248;2023-12-28T08:05:48;20.40;40.30
30148;DHT22;16960;49.404;8.248;2023-12-28T08:08:15;20.40;40.30
30148;DHT22;16960;49.404;8.248;2023-12-28T08:10:42;20.40;40.30
30148;DHT22;16960;49.404;8.248;2023-12-28T08:13:09;20.40;40.30
30148;DHT22;16960;49.404;8.248;2023-12-28T08:15:36;20.50;40.40
30148;DHT22;16960;49.404;8.248;2023-12-28T08:18:03;20.40;40.30
30148;DHT22;16960;49.404;8.248;2023-12-28T08:20:32;20.40;40.20
30148;DHT22;16960;49.404;8.248;2023-12-28T08:22:59;20.50;40.30
30148;DHT22;16960;49.404;8.248;2023-12-28T08:25:26;20.50;40.20
30148;DHT22;16960;49.404;8.248;2023-12-28T08:27:53;20.50;40.10
30148;DHT22;16960;49.404;8.248;2023-12-28T08:30:20;20.50;40.10
30148;DHT22;16960;49.404;8.248;2023-12-28T08:32:47;20.50;40.10
30148;DHT22;16960;49.404;8.248;2023-12-28T08:35:14;20.50;40.10
30148;DHT22;16960;49.404;8.248;2023-12-28T08:37:42;20.40;40.10
30148;DHT22;16960;49.404;8.248;2023-12-28T08:40:10;20.40;40.20
30148;DHT22;16960;49.404;8.248;2023-12-28T08:42:37;20.40;40.30
30148;DHT22;16960;49.404;8.248;2023-12-28T08:45:04;20.40;40.30
30148;DHT22;16960;49.404;8.248;2023-12-28T08:47:31;20.40;40.40
30148;DHT22;16960;49.404;8.248;2023-12-28T08:49:58;20.40;40.40
30148;DHT22;16960;49.404;8.248;2023-12-28T08:52:25;20.40;40.40
30148;DHT22;16960;49.404;8.248;2023-12-28T08:54:53;20.40;40.40
30148;DHT22;16960;49.404;8.248;2023-12-28T08:57:21;20.40;40.40
30148;DHT22;16960;49.404;8.248;2023-12-28T08:59:48;20.40;40.40
30148;DHT22;16960;49.404;8.248;2023-12-28T09:02:14;20.40;40.40
30148;DHT22;16960;49.404;8.248;2023-12-28T09:04:41;20.40;40.40
30148;DHT22;16960;49.404;8.248;2023-12-28T09:07:08;20.40;40.40
30148;DHT22;16960;49.404;8.248;2023-12-28T09:09:35;20.40;40.40
30148;DHT22;16960;49.404;8.248;2023-12-28T09:12:04;20.40;40.40
30148;DHT22;16960;49.404;8.248;2023-12-28T09:14:31;20.40;40.40
30148;DHT22;16960;49.404;8.248;2023-12-28T09:16:58;20.40;40.40
30148;DHT22;16960;49.404;8.248;2023-12-28T09:19:25;20.40;40.30
30148;DHT22;16960;49.404;8.248;2023-12-28T09:21:52;20.50;40.40
30148;DHT22;16960;49.404;8.248;2023-12-28T09:24:19;20.40;40.40
30148;DHT22;16960;49.404;8.248;2023-12-28T09:26:46;20.40;40.30
30148;DHT22;16960;49.404;8.248;2023-12-28T09:29:14;20.40;40.30
30148;DHT22;16960;49.404;8.248;2023-12-28T09:31:41;20.50;40.30
30148;DHT22;16960;49.404;8.248;2023-12-28T09:34:08;20.50;40.30
30148;DHT22;16960;49.404;8.248;2023-12-28T09:36:35;20.50;40.40
30148;DHT22;16960;49.404;8.248;2023-12-28T09:39:02;20.40;40.50
30148;DHT22;16960;49.404;8.248;2023-12-28T09:41:32;20.40;40.90
30148;DHT22;16960;49.404;8.248;2023-12-28T09:44:07;20.50;41.20
30148;DHT22;16960;49.404;8.248;2023-12-28T09:46:36;20.50;41.60
30148;DHT22;16960;49.404;8.248;2023-12-28T09:49:04;20.50;41.60
30148;DHT22;16960;49.404;8.248;2023-12-28T09:51:31;20.50;41.50
30148;DHT22;16960;49.404;8.248;2023-12-28T09:53:58;20.50;41.40
30148;DHT22;16960;49.404;8.248;2023-12-28T09:56:26;20.60;41.40
30148;DHT22;16960;49.404;8.248;2023-12-28T09:58:53;20.60;41.30
30148;DHT22;16960;49.404;8.248;2023-12-28T10:01:21;20.60;41.20
30148;DHT22;16960;49.404;8.248;2023-12-28T10:03:50;20.60;41.00
30148;DHT22;16960;49.404;8.248;2023-12-28T10:06:17;20.60;40.90
30148;DHT22;16960;49.404;8.248;2023-12-28T10:08:48;20.60;40.80
30148;DHT22;16960;49.404;8.248;2023-12-28T10:11:15;20.60;40.70
30148;DHT22;16960;49.404;8.248;2023-12-28T10:13:43;20.70;40.90
30148;DHT22;16960;49.404;8.248;2023-12-28T10:16:10;20.70;41.10
30148;DHT22;16960;49.404;8.248;2023-12-28T10:18:40;20.70;40.90
30148;DHT22;16960;49.404;8.248;2023-12-28T10:21:09;20.80;40.90
30148;DHT22;16960;49.404;8.248;2023-12-28T10:23:36;20.80;40.80
30148;DHT22;16960;49.404;8.248;2023-12-28T10:26:04;20.80;40.70
30148;DHT22;16960;49.404;8.248;2023-12-28T10:28:31;20.80;40.70
30148;DHT22;16960;49.404;8.248;2023-12-28T10:30:59;20.90;40.80
30148;DHT22;16960;49.404;8.248;2023-12-28T10:33:26;20.90;40.90
30148;DHT22;16960;49.404;8.248;2023-12-28T10:35:55;20.90;40.70
30148;DHT22;16960;49.404;8.248;2023-12-28T10:38:26;20.90;40.80
30148;DHT22;16960;49.404;8.248;2023-12-28T10:40:55;20.90;40.80
30148;DHT22;16960;49.404;8.248;2023-12-28T10:43:24;20.90;40.70
30148;DHT22;16960;49.404;8.248;2023-12-28T10:45:53;21.00;40.70
30148;DHT22;16960;49.404;8.248;2023-12-28T10:48:27;21.00;40.90
30148;DHT22;16960;49.404;8.248;2023-12-28T10:50:57;21.00;40.70
30148;DHT22;16960;49.404;8.248;2023-12-28T10:53:42;21.00;40.90
30148;DHT22;16960;49.404;8.248;2023-12-28T10:56:19;21.00;40.80
30148;DHT22;16960;49.404;8.248;2023-12-28T10:58:50;21.00;40.70
30148;DHT22;16960;49.404;8.248;2023-12-28T11:01:22;21.00;40.60
30148;DHT22;16960;49.404;8.248;2023-12-28T11:03:54;21.00;40.50
30148;DHT22;16960;49.404;8.248;2023-12-28T11:06:26;21.00;40.40
30148;DHT22;16960;49.404;8.248;2023-12-28T11:08:56;21.10;40.40
30148;DHT22;16960;49.404;8.248;2023-12-28T11:11:24;21.00;40.20
30148;DHT22;16960;49.404;8.248;2023-12-28T11:13:53;21.10;40.30
30148;DHT22;16960;49.404;8.248;2023-12-28T11:16:22;21.10;40.20
30148;DHT22;16960;49.404;8.248;2023-12-28T11:18:49;21.00;40.10
30148;DHT22;16960;49.404;8.248;2023-12-28T11:21:17;21.10;40.10
30148;DHT22;16960;49.404;8.248;2023-12-28T11:23:51;21.10;40.10
30148;DHT22;16960;49.404;8.248;2023-12-28T11:26:21;21.10;40.10
30148;DHT22;16960;49.404;8.248;2023-12-28T11:28:48;21.10;40.00
30148;DHT22;16960;49.404;8.248;2023-12-28T11:31:15;21.10;40.00
30148;DHT22;16960;49.404;8.248;2023-12-28T11:33:44;21.10;39.90
30148;DHT22;16960;49.404;8.248;2023-12-28T11:36:12;21.10;39.90
30148;DHT22;16960;49.404;8.248;2023-12-28T11:38:40;21.10;40.00
30148;DHT22;16960;49.404;8.248;2023-12-28T11:41:08;21.10;39.90
30148;DHT22;16960;49.404;8.248;2023-12-28T11:43:36;21.10;39.90
30148;DHT22;16960;49.404;8.248;2023-12-28T11:46:03;21.10;39.90
30148;DHT22;16960;49.404;8.248;2023-12-28T11:48:31;21.10;39.90
30148;DHT22;16960;49.404;8.248;2023-12-28T11:51:00;21.10;39.90
30148;DHT22;16960;49.404;8.248;2023-12-28T11:53:28;21.10;40.10
30148;DHT22;16960;49.404;8.248;2023-12-28T11:56:00;21.00;40.00
30148;DHT22;16960;49.404;8.248;2023-12-28T11:58:28;21.00;40.10
30148;DHT22;16960;49.404;8.248;2023-12-28T12:00:57;21.00;40.10
30148;DHT22;16960;49.404;8.248;2023-12-28T12:03:25;21.00;40.10
30148;DHT22;16960;49.404;8.248;2023-12-28T12:05:52;21.00;40.20
30148;DHT22;16960;49.404;8.248;2023-12-28T12:08:19;20.90;41.10
30148;DHT22;16960;49.404;8.248;2023-12-28T12:10:46;20.90;40.40
30148;DHT22;16960;49.404;8.248;2023-12-28T12:13:14;20.90;40.40
30148;DHT22;16960;49.404;8.248;2023-12-28T12:15:42;20.90;40.40
30148;DHT22;16960;49.404;8.248;2023-12-28T12:18:10;20.90;40.40
30148;DHT22;16960;49.404;8.248;2023-12-28T12:20:37;20.80;40.30
30148;DHT22;16960;49.404;8.248;2023-12-28T12:23:04;20.90;40.40
30148;DHT22;16960;49.404;8.248;2023-12-28T12:25:31;20.90;40.50
30148;DHT22;16960;49.404;8.248;2023-12-28T12:27:57;20.80;40.40
30148;DHT22;16960;49.404;8.248;2023-12-28T12:30:24;20.80;40.40
30148;DHT22;16960;49.404;8.248;2023-12-28T12:32:51;20.80;40.40
30148;DHT22;16960;49.404;8.248;2023-12-28T12:35:19;20.80;40.40
30148;DHT22;16960;49.404;8.248;2023-12-28T12:37:47;20.80;40.40
30148;DHT22;16960;49.404;8.248;2023-12-28T12:40:15;20.80;40.40
30148;DHT22;16960;49.404;8.248;2023-12-28T12:42:43;20.80;40.40
30148;DHT22;16960;49.404;8.248;2023-12-28T12:45:18;20.80;40.40
30148;DHT22;16960;49.404;8.248;2023-12-28T12:47:46;20.80;40.40
30148;DHT22;16960;49.404;8.248;2023-12-28T12:50:13;20.80;40.40
30148;DHT22;16960;49.404;8.248;2023-12-28T12:52:43;20.80;40.40
30148;DHT22;16960;49.404;8.248;2023-12-28T12:55:11;20.80;40.40
30148;DHT22;16960;49.404;8.248;2023-12-28T12:57:38;20.80;40.40
30148;DHT22;16960;49.404;8.248;2023-12-28T13:00:06;20.80;40.40
30148;DHT22;16960;49.404;8.248;2023-12-28T13:02:34;20.80;40.40
30148;DHT22;16960;49.404;8.248;2023-12-28T13:05:02;20.80;40.40
30148;DHT22;16960;49.404;8.248;2023-12-28T13:07:30;20.80;40.40
30148;DHT22;16960;49.404;8.248;2023-12-28T13:09:58;20.80;40.40
30148;DHT22;16960;49.404;8.248;2023-12-28T13:12:25;20.80;40.40
30148;DHT22;16960;49.404;8.248;2023-12-28T13:14:52;20.80;40.30
30148;DHT22;16960;49.404;8.248;2023-12-28T13:17:19;20.80;40.30
30148;DHT22;16960;49.404;8.248;2023-12-28T13:19:46;20.70;40.30
30148;DHT22;16960;49.404;8.248;2023-12-28T13:22:13;20.80;40.30
30148;DHT22;16960;49.404;8.248;2023-12-28T13:24:39;20.80;40.30
30148;DHT22;16960;49.404;8.248;2023-12-28T13:27:08;20.80;40.30
30148;DHT22;16960;49.404;8.248;2023-12-28T13:29:36;20.80;40.30
30148;DHT22;16960;49.404;8.248;2023-12-28T13:32:03;20.80;40.30
30148;DHT22;16960;49.404;8.248;2023-12-28T13:34:30;20.80;40.30
30148;DHT22;16960;49.404;8.248;2023-12-28T13:37:02;20.70;40.30
30148;DHT22;16960;49.404;8.248;2023-12-28T13:40:14;20.70;40.30
30148;DHT22;16960;49.404;8.248;2023-12-28T13:43:00;20.70;40.40
30148;DHT22;16960;49.404;8.248;2023-12-28T13:45:27;20.70;40.40
30148;DHT22;16960;49.404;8.248;2023-12-28T13:47:54;20.70;40.40
30148;DHT22;16960;49.404;8.248;2023-12-28T13:50:21;20.70;40.40
30148;DHT22;16960;49.404;8.248;2023-12-28T13:52:48;20.70;40.40
30148;DHT22;16960;49.404;8.248;2023-12-28T13:55:15;20.70;40.40
30148;DHT22;16960;49.404;8.248;2023-12-28T13:57:41;20.70;40.40
30148;DHT22;16960;49.404;8.248;2023-12-28T14:00:11;20.70;40.40
30148;DHT22;16960;49.404;8.248;2023-12-28T14:02:39;20.70;40.40
30148;DHT22;16960;49.404;8.248;2023-12-28T14:05:06;20.70;40.50
30148;DHT22;16960;49.404;8.248;2023-12-28T14:07:33;20.70;40.50
30148;DHT22;16960;49.404;8.248;2023-12-28T14:10:00;20.60;40.50
30148;DHT22;16960;49.404;8.248;2023-12-28T14:12:27;20.60;40.60
30148;DHT22;16960;49.404;8.248;2023-12-28T14:14:54;20.60;40.60
30148;DHT22;16960;49.404;8.248;2023-12-28T14:17:22;20.60;40.60
30148;DHT22;16960;49.404;8.248;2023-12-28T14:19:49;20.60;40.60
30148;DHT22;16960;49.404;8.248;2023-12-28T14:22:16;20.60;40.70
30148;DHT22;16960;49.404;8.248;2023-12-28T14:24:44;20.60;40.70
30148;DHT22;16960;49.404;8.248;2023-12-28T14:27:12;20.60;40.70
30148;DHT22;16960;49.404;8.248;2023-12-28T14:29:39;20.60;40.70
30148;DHT22;16960;49.404;8.248;2023-12-28T14:32:07;20.60;40.70
30148;DHT22;16960;49.404;8.248;2023-12-28T14:34:36;20.60;40.70
30148;DHT22;16960;49.404;8.248;2023-12-28T14:37:03;20.60;40.70
30148;DHT22;16960;49.404;8.248;2023-12-28T14:39:30;20.60;40.70
30148;DHT22;16960;49.404;8.248;2023-12-28T14:41:57;20.60;41.10
30148;DHT22;16960;49.404;8.248;2023-12-28T14:44:28;20.60;42.10
30148;DHT22;16960;49.404;8.248;2023-12-28T14:46:55;20.60;42.30
30148;DHT22;16960;49.404;8.248;2023-12-28T14:49:22;20.60;42.50
30148;DHT22;16960;49.404;8.248;2023-12-28T14:51:51;20.60;42.60
30148;DHT22;16960;49.404;8.248;2023-12-28T14:54:18;20.60;43.30
30148;DHT22;16960;49.404;8.248;2023-12-28T14:56:44;20.60;42.50
30148;DHT22;16960;49.404;8.248;2023-12-28T14:59:11;20.70;42.40
30148;DHT22;16960;49.404;8.248;2023-12-28T15:01:38;20.60;42.40
30148;DHT22;16960;49.404;8.248;2023-12-28T15:04:06;20.60;42.20
30148;DHT22;16960;49.404;8.248;2023-12-28T15:06:32;20.70;42.20
30148;DHT22;16960;49.404;8.248;2023-12-28T15:09:01;20.70;42.20
30148;DHT22;16960;49.404;8.248;2023-12-28T15:11:28;20.70;42.20
30148;DHT22;16960;49.404;8.248;2023-12-28T15:13:55;20.70;42.10
30148;DHT22;16960;49.404;8.248;2023-12-28T15:16:23;20.70;41.90
30148;DHT22;16960;49.404;8.248;2023-12-28T15:18:50;20.80;41.80
30148;DHT22;16960;49.404;8.248;2023-12-28T15:21:18;20.80;41.70
30148;DHT22;16960;49.404;8.248;2023-12-28T15:23:45;20.80;42.30
30148;DHT22;16960;49.404;8.248;2023-12-28T15:26:15;20.90;41.60
30148;DHT22;16960;49.404;8.248;2023-12-28T15:28:46;20.90;41.40
30148;DHT22;16960;49.404;8.248;2023-12-28T15:31:14;21.00;41.30
30148;DHT22;16960;49.404;8.248;2023-12-28T15:33:41;21.00;41.20
30148;DHT22;16960;49.404;8.248;2023-12-28T15:36:09;21.00;41.10
30148;DHT22;16960;49.404;8.248;2023-12-28T15:38:36;21.10;41.10